Time;durP1;ratioP1;P1;durP2;ratioP2;P2;SDS_P1;SDS_P2;PMS_P1;PMS_P2;Temp;Humidity;BMP_temperature;BMP_pressure;BME280_temperature;BME280_humidity;BME280_pressure;Samples;Min_cycle;Max_cycle;Signal;HPM_P1;HPM_P2
2023/03/09 00:00:21;;;;;;;;;;;10.70;99.90;;;;;;6211656;23;19903;-92
2023/03/09 00:02:47;;;;;;;;;;;10.60;99.90;;;;;;6185884;23;19907;-92
2023/03/09 00:05:12;;;;;;;;;;;10.60;99.90;;;;;;6185792;23;20248;-91
2023/03/09 00:07:38;;;;;;;;;;;10.60;99.90;;;;;;6185993;23;19978;-92
2023/03/09 00:10:04;;;;;;;;;;;10.60;99.90;;;;;;6213519;23;19962;-91
2023/03/09 00:12:29;;;;;;;;;;;10.60;99.90;;;;;;6185843;23;19900;-92
2023/03/09 00:14:55;;;;;;;;;;;10.70;99.90;;;;;;6185893;23;19971;-92
2023/03/09 00:17:21;;;;;;;;;;;9.50;99.90;;;;;;6185809;23;19900;-90
2023/03/09 00:19:46;;;;;;;;;;;10.70;99.90;;;;;;6212556;23;19946;-90
2023/03/09 00:22:12;;;;;;;;;;;10.70;99.90;;;;;;6185849;23;20435;-90
2023/03/09 00:24:46;;;;;;;;;;;10.70;99.90;;;;;;6186330;23;19907;-92
2023/03/09 00:27:14;;;;;;;;;;;10.80;99.90;;;;;;6212069;23;19904;-90
2023/03/09 00:29:40;;;;;;;;;;;10.80;99.90;;;;;;6185545;23;19933;-91
2023/03/09 00:32:06;;;;;;;;;;;10.80;99.90;;;;;;6185399;23;19961;-90
2023/03/09 00:34:31;;;;;;;;;;;10.70;99.90;;;;;;6213361;23;19899;-91
2023/03/09 00:36:57;;;;;;;;;;;10.80;99.90;;;;;;6212103;23;19957;-91
2023/03/09 00:39:23;;;;;;;;;;;10.80;99.90;;;;;;6185645;23;19904;-90
2023/03/09 00:41:48;;;;;;;;;;;10.80;99.90;;;;;;6185881;23;19899;-90
2023/03/09 00:44:14;;;;;;;;;;;12.70;99.90;;;;;;6186212;23;19900;-92
2023/03/09 00:46:42;;;;;;;;;;;11.40;99.90;;;;;;6186885;23;20400;-92
2023/03/09 00:49:10;;;;;;;;;;;10.90;99.90;;;;;;6213609;23;19923;-89
2023/03/09 00:51:38;;;;;;;;;;;10.90;99.90;;;;;;6214949;23;20248;-90
2023/03/09 00:54:04;;;;;;;;;;;10.90;99.90;;;;;;6187731;23;19900;-90
2023/03/09 00:56:30;;;;;;;;;;;11.00;99.90;;;;;;6187816;23;20317;-90
2023/03/09 00:58:56;;;;;;;;;;;10.90;99.90;;;;;;6186769;23;19906;-90
2023/03/09 01:01:22;;;;;;;;;;;11.00;99.90;;;;;;6187557;23;19900;-92
2023/03/09 01:03:48;;;;;;;;;;;11.00;99.90;;;;;;6213900;23;19899;-89
2023/03/09 01:06:13;;;;;;;;;;;11.20;99.90;;;;;;6213147;23;19911;-91
2023/03/09 01:08:39;;;;;;;;;;;11.40;99.90;;;;;;6186506;23;19943;-91
2023/03/09 01:11:06;;;;;;;;;;;10.70;99.90;;;;;;6188074;23;19924;-90
2023/03/09 01:13:31;;;;;;;;;;;10.30;99.90;;;;;;6187567;23;19900;-92
2023/03/09 01:15:57;;;;;;;;;;;10.80;99.90;;;;;;6187631;23;19907;-90
2023/03/09 01:18:23;;;;;;;;;;;11.40;99.90;;;;;;6186948;23;19904;-92
2023/03/09 01:20:50;;;;;;;;;;;11.10;99.90;;;;;;6186662;23;19908;-90
2023/03/09 01:23:16;;;;;;;;;;;12.00;99.90;;;;;;6186823;23;20320;-92
2023/03/09 01:25:42;;;;;;;;;;;11.10;99.90;;;;;;6187183;23;19907;-91
2023/03/09 01:28:07;;;;;;;;;;;11.20;99.90;;;;;;6187420;23;19904;-92
2023/03/09 01:30:33;;;;;;;;;;;11.20;99.90;;;;;;6187251;23;19951;-92
2023/03/09 01:32:58;;;;;;;;;;;11.10;99.90;;;;;;6187616;23;20296;-92
2023/03/09 01:35:24;;;;;;;;;;;10.30;99.90;;;;;;6187148;23;19900;-91
2023/03/09 01:37:49;;;;;;;;;;;11.20;99.90;;;;;;6213197;23;20317;-90
2023/03/09 01:40:16;;;;;;;;;;;11.20;99.90;;;;;;6186910;23;19900;-90
2023/03/09 01:42:42;;;;;;;;;;;11.20;99.90;;;;;;6186946;23;19900;-90
2023/03/09 01:45:27;;;;;;;;;;;11.20;99.90;;;;;;6188319;23;19904;-91
2023/03/09 01:47:53;;;;;;;;;;;11.20;99.90;;;;;;6187121;23;19904;-89
2023/03/09 01:50:25;;;;;;;;;;;11.80;99.90;;;;;;6212996;23;19904;-89
2023/03/09 01:52:52;;;;;;;;;;;11.30;99.90;;;;;;6186639;23;19923;-91
2023/03/09 01:55:20;;;;;;;;;;;11.30;99.90;;;;;;6185625;23;19900;-91
2023/03/09 01:57:55;;;;;;;;;;;11.20;99.90;;;;;;6212844;23;19904;-91
2023/03/09 02:00:24;;;;;;;;;;;11.30;99.90;;;;;;6186877;23;20276;-90
2023/03/09 02:02:52;;;;;;;;;;;11.20;99.90;;;;;;6186750;23;19907;-90
2023/03/09 02:05:28;;;;;;;;;;;11.30;99.90;;;;;;6186450;23;19904;-90
2023/03/09 02:07:53;;;;;;;;;;;11.20;99.90;;;;;;6212617;23;19910;-90
2023/03/09 02:10:22;;;;;;;;;;;11.30;99.90;;;;;;6213217;23;19974;-89
2023/03/09 02:12:52;;;;;;;;;;;11.40;99.90;;;;;;6213462;23;19924;-91
2023/03/09 02:15:20;;;;;;;;;;;11.20;99.90;;;;;;6186659;23;19958;-90
2023/03/09 02:17:46;;;;;;;;;;;11.20;99.90;;;;;;6212998;23;19904;-91
2023/03/09 02:20:30;;;;;;;;;;;11.20;99.90;;;;;;6186586;23;20224;-90
2023/03/09 02:22:56;;;;;;;;;;;11.20;99.90;;;;;;6213584;23;19900;-90
2023/03/09 02:25:29;;;;;;;;;;;11.10;99.90;;;;;;6186203;23;19906;-90
2023/03/09 02:27:54;;;;;;;;;;;11.10;99.90;;;;;;6186641;23;19906;-91
2023/03/09 02:30:21;;;;;;;;;;;11.10;99.90;;;;;;6186898;23;19904;-91
2023/03/09 02:32:46;;;;;;;;;;;11.10;99.90;;;;;;6213228;23;19924;-91
2023/03/09 02:35:12;;;;;;;;;;;11.10;99.90;;;;;;6224032;23;19923;-92
2023/03/09 02:37:39;;;;;;;;;;;11.00;99.90;;;;;;6195131;23;19923;-91
2023/03/09 02:40:10;;;;;;;;;;;11.10;99.90;;;;;;6224779;23;19907;-89
2023/03/09 02:42:37;;;;;;;;;;;11.10;99.90;;;;;;6222416;23;19900;-90
2023/03/09 02:45:03;;;;;;;;;;;11.10;99.90;;;;;;6213286;23;19900;-90
2023/03/09 02:47:29;;;;;;;;;;;11.10;99.90;;;;;;6186339;23;19983;-89
2023/03/09 02:49:54;;;;;;;;;;;11.20;99.90;;;;;;6186500;23;19939;-91
2023/03/09 02:52:20;;;;;;;;;;;11.10;99.90;;;;;;6187025;23;19900;-90
2023/03/09 02:54:46;;;;;;;;;;;13.80;99.90;;;;;;6186304;23;20324;-90
2023/03/09 02:57:14;;;;;;;;;;;11.10;99.90;;;;;;6186823;23;19983;-90
2023/03/09 02:59:40;;;;;;;;;;;11.10;99.90;;;;;;6187077;23;19904;-90
2023/03/09 03:02:06;;;;;;;;;;;11.00;99.90;;;;;;6185427;23;19923;-90
2023/03/09 03:04:32;;;;;;;;;;;10.90;99.90;;;;;;6185504;23;19962;-90
2023/03/09 03:06:57;;;;;;;;;;;11.10;99.90;;;;;;6185740;23;19962;-91
2023/03/09 03:09:23;;;;;;;;;;;10.80;99.90;;;;;;6186129;23;19961;-91
2023/03/09 03:11:48;;;;;;;;;;;10.80;99.90;;;;;;6185970;23;20011;-92
2023/03/09 03:14:14;;;;;;;;;;;11.20;99.90;;;;;;6187004;23;20050;-90
2023/03/09 03:16:39;;;;;;;;;;;10.70;99.90;;;;;;6185402;23;19900;-91
2023/03/09 03:19:05;;;;;;;;;;;10.80;99.90;;;;;;6186048;23;20415;-90
2023/03/09 03:21:30;;;;;;;;;;;10.80;99.90;;;;;;6212773;23;19899;-89
2023/03/09 03:23:56;;;;;;;;;;;10.70;99.90;;;;;;6185723;23;19927;-92
2023/03/09 03:26:21;;;;;;;;;;;10.70;99.90;;;;;;6211961;23;19954;-91
2023/03/09 03:28:47;;;;;;;;;;;11.00;99.90;;;;;;6211672;23;20300;-91
2023/03/09 03:31:13;;;;;;;;;;;11.00;99.90;;;;;;6186807;23;19919;-90
2023/03/09 03:33:38;;;;;;;;;;;11.00;99.90;;;;;;6185960;23;19922;-93
2023/03/09 03:36:04;;;;;;;;;;;10.70;99.90;;;;;;6186029;23;19986;-91
2023/03/09 03:38:29;;;;;;;;;;;10.70;99.90;;;;;;6185332;23;19995;-92
2023/03/09 03:40:57;;;;;;;;;;;10.70;99.90;;;;;;6185148;23;20236;-93
2023/03/09 03:43:23;;;;;;;;;;;10.70;99.90;;;;;;6185774;23;20321;-92
2023/03/09 03:45:48;;;;;;;;;;;10.80;99.90;;;;;;6186334;23;20010;-91
2023/03/09 03:48:14;;;;;;;;;;;10.70;99.90;;;;;;6186642;23;19927;-92
2023/03/09 03:50:39;;;;;;;;;;;10.80;99.90;;;;;;6212285;23;20329;-92
2023/03/09 03:53:05;;;;;;;;;;;10.90;99.90;;;;;;6212617;23;19931;-91
2023/03/09 03:55:30;;;;;;;;;;;10.70;99.90;;;;;;6185598;23;19900;-91
2023/03/09 03:57:58;;;;;;;;;;;10.80;99.90;;;;;;6184690;23;19947;-91
2023/03/09 04:00:24;;;;;;;;;;;10.80;99.90;;;;;;6185311;23;20336;-92
2023/03/09 04:02:50;;;;;;;;;;;10.80;99.90;;;;;;6186390;23;19931;-91
2023/03/09 04:05:15;;;;;;;;;;;11.20;99.90;;;;;;6187409;23;19954;-91
2023/03/09 04:07:41;;;;;;;;;;;10.90;99.90;;;;;;6211846;23;19978;-90
2023/03/09 04:10:07;;;;;;;;;;;10.80;99.90;;;;;;6185362;23;19908;-92
2023/03/09 04:12:33;;;;;;;;;;;10.90;99.90;;;;;;6185955;23;19954;-92
2023/03/09 04:14:59;;;;;;;;;;;10.90;99.90;;;;;;6185472;23;19900;-90
2023/03/09 04:17:24;;;;;;;;;;;11.00;99.90;;;;;;6185901;23;19935;-90
2023/03/09 04:19:50;;;;;;;;;;;10.90;99.90;;;;;;6214278;23;19915;-91
2023/03/09 04:22:19;;;;;;;;;;;12.20;99.90;;;;;;6188972;23;20232;-90
2023/03/09 04:24:47;;;;;;;;;;;11.00;99.90;;;;;;6214284;23;19900;-91
2023/03/09 04:27:13;;;;;;;;;;;11.00;99.90;;;;;;6186452;23;19906;-91
2023/03/09 04:29:39;;;;;;;;;;;11.30;99.90;;;;;;6214185;23;20155;-92
2023/03/09 04:32:05;;;;;;;;;;;11.00;99.90;;;;;;6187495;23;20321;-92
2023/03/09 04:34:31;;;;;;;;;;;11.50;99.90;;;;;;6187746;23;19900;-91
2023/03/09 04:36:56;;;;;;;;;;;11.00;99.90;;;;;;6187229;23;19900;-91
2023/03/09 04:39:22;;;;;;;;;;;11.00;99.90;;;;;;6187553;23;19900;-90
2023/03/09 04:41:47;;;;;;;;;;;11.00;99.90;;;;;;6188532;23;20348;-92
2023/03/09 04:44:15;;;;;;;;;;;11.00;99.90;;;;;;6214621;23;20324;-92
2023/03/09 04:46:41;;;;;;;;;;;11.00;99.90;;;;;;6213918;23;19910;-90
2023/03/09 04:49:06;;;;;;;;;;;11.20;99.90;;;;;;6187086;23;19908;-90
2023/03/09 04:51:32;;;;;;;;;;;11.10;99.90;;;;;;6213395;23;19978;-90
2023/03/09 04:53:57;;;;;;;;;;;11.10;99.90;;;;;;6213416;23;19996;-90
2023/03/09 04:56:23;;;;;;;;;;;11.00;99.90;;;;;;6187296;23;19904;-92
2023/03/09 04:58:48;;;;;;;;;;;11.00;99.90;;;;;;6187959;23;19899;-92
2023/03/09 05:01:14;;;;;;;;;;;11.00;99.90;;;;;;6213777;23;19954;-92
2023/03/09 05:03:42;;;;;;;;;;;11.10;99.90;;;;;;6213158;23;19907;-91
2023/03/09 05:06:08;;;;;;;;;;;11.00;99.90;;;;;;6187572;23;19899;-90
2023/03/09 05:08:34;;;;;;;;;;;11.10;99.90;;;;;;6213244;23;20237;-91
2023/03/09 05:11:00;;;;;;;;;;;11.30;99.90;;;;;;6186461;23;19943;-90
2023/03/09 05:13:25;;;;;;;;;;;11.30;99.90;;;;;;6187373;23;19900;-90
2023/03/09 05:15:51;;;;;;;;;;;10.90;99.90;;;;;;6214688;23;19978;-90
2023/03/09 05:18:16;;;;;;;;;;;10.80;99.90;;;;;;6186747;23;20007;-91
2023/03/09 05:20:42;;;;;;;;;;;10.90;99.90;;;;;;6187418;23;19911;-90
2023/03/09 05:23:07;;;;;;;;;;;11.00;99.90;;;;;;6186054;23;19978;-90
2023/03/09 05:25:33;;;;;;;;;;;10.90;99.90;;;;;;6187081;23;19975;-92
2023/03/09 05:27:59;;;;;;;;;;;10.90;99.90;;;;;;6224306;23;20337;-91
2023/03/09 05:30:24;;;;;;;;;;;10.90;99.90;;;;;;6191908;23;19920;-90
2023/03/09 05:32:50;;;;;;;;;;;11.00;99.90;;;;;;6199611;23;19900;-91
2023/03/09 05:35:19;;;;;;;;;;;10.80;99.90;;;;;;6216548;23;19903;-92
2023/03/09 05:37:45;;;;;;;;;;;10.90;99.90;;;;;;6184779;23;20383;-85
2023/03/09 05:40:11;;;;;;;;;;;11.00;99.90;;;;;;6208187;23;19900;-87
2023/03/09 05:42:36;;;;;;;;;;;10.90;99.90;;;;;;6207675;23;20299;-88
2023/03/09 05:45:04;;;;;;;;;;;10.90;99.90;;;;;;6211813;23;19927;-87
2023/03/09 05:47:30;;;;;;;;;;;10.90;99.90;;;;;;6211141;23;19900;-85
2023/03/09 05:49:55;;;;;;;;;;;11.00;99.90;;;;;;6211044;23;19907;-89
2023/03/09 05:52:21;;;;;;;;;;;11.00;99.90;;;;;;6184785;23;20232;-85
2023/03/09 05:54:46;;;;;;;;;;;11.10;99.90;;;;;;6208880;23;20233;-84
2023/03/09 05:57:12;;;;;;;;;;;10.90;99.90;;;;;;6212062;23;19910;-84
2023/03/09 05:59:38;;;;;;;;;;;10.90;99.90;;;;;;6211005;23;19900;-87
2023/03/09 06:02:03;;;;;;;;;;;10.90;99.90;;;;;;6209157;23;19904;-87
2023/03/09 06:04:29;;;;;;;;;;;10.80;99.90;;;;;;6212505;23;20236;-84
2023/03/09 06:06:54;;;;;;;;;;;10.80;99.90;;;;;;6207962;23;20344;-84
2023/03/09 06:09:20;;;;;;;;;;;10.80;99.90;;;;;;6210055;23;19915;-84
2023/03/09 06:11:46;;;;;;;;;;;10.80;99.90;;;;;;6207708;23;19900;-84
2023/03/09 06:14:11;;;;;;;;;;;10.80;99.90;;;;;;6207233;23;19955;-85
2023/03/09 06:16:37;;;;;;;;;;;10.90;99.90;;;;;;6203291;23;19900;-84
2023/03/09 06:19:03;;;;;;;;;;;10.90;99.90;;;;;;6203571;23;19990;-86
2023/03/09 06:21:28;;;;;;;;;;;10.90;99.90;;;;;;6180357;23;19946;-84
2023/03/09 06:23:54;;;;;;;;;;;10.90;99.90;;;;;;6180430;23;19914;-84
2023/03/09 06:26:21;;;;;;;;;;;11.00;99.90;;;;;;6181483;23;20229;-84
2023/03/09 06:28:47;;;;;;;;;;;11.00;99.90;;;;;;6210602;23;20325;-83
2023/03/09 06:31:13;;;;;;;;;;;11.00;99.90;;;;;;6184950;23;19900;-84
2023/03/09 06:33:39;;;;;;;;;;;10.90;99.90;;;;;;6211989;23;20293;-86
2023/03/09 06:36:05;;;;;;;;;;;10.90;99.90;;;;;;6206549;23;19900;-84
2023/03/09 06:38:31;;;;;;;;;;;10.90;99.90;;;;;;6208798;23;19899;-85
2023/03/09 06:40:56;;;;;;;;;;;10.90;99.90;;;;;;6211752;23;19900;-83
2023/03/09 06:43:22;;;;;;;;;;;10.90;99.90;;;;;;6212031;23;19904;-84
2023/03/09 06:45:48;;;;;;;;;;;10.90;99.90;;;;;;6211642;23;19980;-84
2023/03/09 06:48:14;;;;;;;;;;;10.90;99.90;;;;;;6210822;23;19942;-84
2023/03/09 06:50:39;;;;;;;;;;;11.00;99.90;;;;;;6184036;23;19904;-84
2023/03/09 06:53:05;;;;;;;;;;;11.00;99.90;;;;;;6210379;23;20240;-85
2023/03/09 06:55:31;;;;;;;;;;;11.10;99.90;;;;;;6205848;23;20483;-84
2023/03/09 06:57:57;;;;;;;;;;;11.10;99.90;;;;;;6206968;23;19935;-84
2023/03/09 07:00:22;;;;;;;;;;;11.10;99.90;;;;;;6209130;23;19954;-85
2023/03/09 07:02:48;;;;;;;;;;;11.20;99.90;;;;;;6210104;23;20248;-84
2023/03/09 07:05:13;;;;;;;;;;;11.20;99.90;;;;;;6210283;23;20325;-87
2023/03/09 07:07:42;;;;;;;;;;;11.20;99.90;;;;;;6210637;23;19900;-86
2023/03/09 07:10:08;;;;;;;;;;;11.20;99.90;;;;;;6210649;23;19915;-86
2023/03/09 07:12:34;;;;;;;;;;;11.20;99.90;;;;;;6183299;23;20332;-83
2023/03/09 07:14:59;;;;;;;;;;;11.30;99.90;;;;;;6183395;23;19908;-87
2023/03/09 07:17:25;;;;;;;;;;;11.30;99.90;;;;;;6211327;23;20329;-85
2023/03/09 07:19:51;;;;;;;;;;;11.30;99.90;;;;;;6210070;23;20291;-85
2023/03/09 07:22:17;;;;;;;;;;;11.30;99.90;;;;;;6182364;23;19900;-86
2023/03/09 07:24:43;;;;;;;;;;;11.40;99.90;;;;;;6210209;23;19911;-85
2023/03/09 07:27:08;;;;;;;;;;;11.40;99.90;;;;;;6209630;23;19900;-85
2023/03/09 07:29:34;;;;;;;;;;;11.40;99.90;;;;;;6210136;23;19912;-85
2023/03/09 07:32:01;;;;;;;;;;;11.40;99.90;;;;;;6210199;23;19950;-85
2023/03/09 07:34:27;;;;;;;;;;;11.50;99.90;;;;;;6180227;23;20284;-85
2023/03/09 07:36:52;;;;;;;;;;;11.50;99.90;;;;;;6208785;23;20347;-88
2023/03/09 07:39:18;;;;;;;;;;;11.50;99.90;;;;;;6210317;23;19904;-86
2023/03/09 07:41:43;;;;;;;;;;;11.60;99.90;;;;;;6209513;23;20337;-85
2023/03/09 07:44:09;;;;;;;;;;;11.60;99.90;;;;;;6210602;23;19904;-85
2023/03/09 07:46:34;;;;;;;;;;;11.70;99.90;;;;;;6209903;23;19950;-85
2023/03/09 07:49:00;;;;;;;;;;;11.60;99.90;;;;;;6210098;23;19904;-85
2023/03/09 07:51:25;;;;;;;;;;;11.70;99.90;;;;;;6184062;23;19962;-85
2023/03/09 07:53:51;;;;;;;;;;;11.70;99.90;;;;;;6210317;23;20241;-85
2023/03/09 07:56:17;;;;;;;;;;;11.70;99.90;;;;;;6209764;23;20324;-85
2023/03/09 07:58:43;;;;;;;;;;;11.70;99.90;;;;;;6183547;23;19904;-85
2023/03/09 08:01:12;;;;;;;;;;;11.80;99.90;;;;;;6210238;23;20358;-84
2023/03/09 08:03:38;;;;;;;;;;;11.80;99.90;;;;;;6210311;23;20333;-84
2023/03/09 08:06:05;;;;;;;;;;;11.90;99.90;;;;;;6209463;23;19911;-85
2023/03/09 08:08:31;;;;;;;;;;;11.90;99.90;;;;;;6209230;23;19966;-85
2023/03/09 08:10:57;;;;;;;;;;;12.00;99.90;;;;;;6211463;23;20340;-86
2023/03/09 08:13:23;;;;;;;;;;;12.00;99.90;;;;;;6183618;23;19900;-87
2023/03/09 08:15:48;;;;;;;;;;;12.10;99.90;;;;;;6210196;23;20279;-85
2023/03/09 08:18:14;;;;;;;;;;;12.10;99.90;;;;;;6209742;23;19903;-87
2023/03/09 08:20:40;;;;;;;;;;;12.10;99.90;;;;;;6210136;23;19914;-86
2023/03/09 08:23:06;;;;;;;;;;;12.10;99.90;;;;;;6211026;23;19903;-87
2023/03/09 08:25:31;;;;;;;;;;;12.10;99.90;;;;;;6210839;23;19904;-84
2023/03/09 08:27:57;;;;;;;;;;;12.20;99.90;;;;;;6185195;23;19990;-85
2023/03/09 08:30:23;;;;;;;;;;;12.20;99.90;;;;;;6210734;23;19911;-85
2023/03/09 08:32:49;;;;;;;;;;;12.20;99.90;;;;;;6183267;23;19983;-86
2023/03/09 08:35:15;;;;;;;;;;;12.20;99.90;;;;;;6209662;23;20349;-87
2023/03/09 08:37:41;;;;;;;;;;;12.30;99.90;;;;;;6210127;23;20221;-88
2023/03/09 08:40:07;;;;;;;;;;;12.40;99.90;;;;;;6209365;23;19900;-86
2023/03/09 08:42:33;;;;;;;;;;;12.40;99.90;;;;;;6209785;23;19922;-86
2023/03/09 08:44:59;;;;;;;;;;;12.50;99.90;;;;;;6211257;23;19900;-87
2023/03/09 08:47:25;;;;;;;;;;;12.60;99.90;;;;;;6209248;23;20355;-87
2023/03/09 08:49:50;;;;;;;;;;;12.60;99.90;;;;;;6209687;23;20233;-86
2023/03/09 08:52:16;;;;;;;;;;;12.60;99.90;;;;;;6209831;23;19900;-87
2023/03/09 08:54:42;;;;;;;;;;;12.70;99.90;;;;;;6209117;23;19900;-87
2023/03/09 08:57:08;;;;;;;;;;;12.80;99.90;;;;;;6210200;23;19910;-85
2023/03/09 08:59:34;;;;;;;;;;;12.80;99.90;;;;;;6209678;23;19935;-86
2023/03/09 09:02:00;;;;;;;;;;;12.80;99.90;;;;;;6184472;23;19910;-86
2023/03/09 09:04:25;;;;;;;;;;;12.90;99.90;;;;;;6209600;23;19931;-86
2023/03/09 09:06:51;;;;;;;;;;;12.90;99.90;;;;;;6185209;23;19900;-86
2023/03/09 09:09:16;;;;;;;;;;;12.90;99.90;;;;;;6211057;23;19919;-87
2023/03/09 09:11:42;;;;;;;;;;;12.90;99.90;;;;;;6211824;23;19979;-86
2023/03/09 09:14:07;;;;;;;;;;;12.90;99.90;;;;;;6212004;23;19907;-86
2023/03/09 09:16:33;;;;;;;;;;;12.90;99.90;;;;;;6184731;23;20380;-85
2023/03/09 09:18:58;;;;;;;;;;;12.90;99.90;;;;;;6212147;23;20306;-87
2023/03/09 09:21:24;;;;;;;;;;;13.00;99.90;;;;;;6211783;23;20316;-88
2023/03/09 09:23:50;;;;;;;;;;;13.10;99.90;;;;;;6211759;23;19899;-88
2023/03/09 09:26:16;;;;;;;;;;;13.10;99.90;;;;;;6211133;23;19899;-85
2023/03/09 09:28:42;;;;;;;;;;;13.20;99.90;;;;;;6211527;23;19931;-86
2023/03/09 09:31:09;;;;;;;;;;;13.20;99.90;;;;;;6210418;23;20265;-85
2023/03/09 09:33:36;;;;;;;;;;;13.20;99.90;;;;;;6210910;23;19900;-85
2023/03/09 09:36:06;;;;;;;;;;;13.20;99.90;;;;;;6212807;23;19900;-85
2023/03/09 09:38:33;;;;;;;;;;;13.20;99.90;;;;;;6185729;23;19904;-87
2023/03/09 09:41:02;;;;;;;;;;;13.20;99.90;;;;;;6185512;23;19900;-86
2023/03/09 09:43:29;;;;;;;;;;;13.20;99.90;;;;;;6211062;23;19900;-86
2023/03/09 09:45:55;;;;;;;;;;;13.20;99.90;;;;;;6211233;23;20383;-85
2023/03/09 09:48:22;;;;;;;;;;;13.30;99.90;;;;;;6210486;23;20251;-87
2023/03/09 09:51:06;;;;;;;;;;;13.30;99.90;;;;;;6185043;23;19907;-84
2023/03/09 09:53:35;;;;;;;;;;;13.20;99.90;;;;;;6185412;23;19900;-86
2023/03/09 09:56:01;;;;;;;;;;;13.20;99.90;;;;;;6212305;23;19903;-87
2023/03/09 09:58:27;;;;;;;;;;;13.20;99.90;;;;;;6210216;23;19907;-85
2023/03/09 10:00:54;;;;;;;;;;;13.30;99.90;;;;;;6184692;23;19975;-85
2023/03/09 10:03:21;;;;;;;;;;;13.30;99.90;;;;;;6211224;23;19926;-86
2023/03/09 10:06:05;;;;;;;;;;;13.30;99.90;;;;;;6210923;23;19900;-87
2023/03/09 10:08:42;;;;;;;;;;;13.40;99.90;;;;;;6185159;23;20252;-87
2023/03/09 10:11:14;;;;;;;;;;;13.50;99.90;;;;;;6211201;23;19982;-86
2023/03/09 10:13:45;;;;;;;;;;;13.60;99.90;;;;;;6184297;23;20317;-86
2023/03/09 10:16:16;;;;;;;;;;;13.70;99.90;;;;;;6210627;23;19900;-86
2023/03/09 10:18:44;;;;;;;;;;;13.70;99.90;;;;;;6210238;23;19924;-87
2023/03/09 10:21:14;;;;;;;;;;;13.70;99.90;;;;;;6209832;23;19911;-85
2023/03/09 10:23:41;;;;;;;;;;;13.60;99.90;;;;;;6209386;23;19904;-84
2023/03/09 10:26:25;;;;;;;;;;;13.60;99.90;;;;;;6210604;23;19900;-85
2023/03/09 10:28:52;;;;;;;;;;;13.60;99.90;;;;;;6211140;23;19919;-85
2023/03/09 10:31:23;;;;;;;;;;;13.50;99.90;;;;;;6210360;23;19900;-87
2023/03/09 10:33:49;;;;;;;;;;;13.50;99.90;;;;;;6211096;23;19900;-86
2023/03/09 10:36:24;;;;;;;;;;;13.50;99.90;;;;;;6210241;23;19903;-85
2023/03/09 10:38:50;;;;;;;;;;;13.50;99.90;;;;;;6184012;23;19900;-85
2023/03/09 10:41:17;;;;;;;;;;;13.50;99.90;;;;;;6210204;23;20002;-86
2023/03/09 10:43:43;;;;;;;;;;;13.50;99.90;;;;;;6210996;23;19900;-85
2023/03/09 10:46:16;;;;;;;;;;;13.40;99.90;;;;;;6210483;23;19906;-84
2023/03/09 10:48:42;;;;;;;;;;;13.40;99.90;;;;;;6183276;23;20285;-85
2023/03/09 10:51:21;;;;;;;;;;;13.40;99.90;;;;;;6211001;23;20288;-85
2023/03/09 10:53:48;;;;;;;;;;;13.40;99.90;;;;;;6211063;23;19926;-86
2023/03/09 10:56:24;;;;;;;;;;;13.30;99.90;;;;;;6209599;23;20363;-85
2023/03/09 10:59:07;;;;;;;;;;;13.30;99.90;;;;;;6210824;23;19983;-84
2023/03/09 11:01:36;;;;;;;;;;;13.30;99.90;;;;;;6211930;23;19935;-85
2023/03/09 11:04:22;;;;;;;;;;;13.30;99.90;;;;;;6184019;23;20325;-85
2023/03/09 11:07:23;;;;;;;;;;;13.40;99.90;;;;;;6209684;23;20383;-86
2023/03/09 11:09:52;;;;;;;;;;;13.60;99.90;;;;;;6060302;23;19915;-85
2023/03/09 11:12:20;;;;;;;;;;;13.90;99.90;;;;;;6183768;23;19975;-86
2023/03/09 11:14:46;;;;;;;;;;;14.20;99.90;;;;;;6211783;23;19900;-86
2023/03/09 11:17:25;;;;;;;;;;;14.40;99.90;;;;;;6211423;23;19900;-87
2023/03/09 11:20:10;;;;;;;;;;;14.50;99.90;;;;;;6211146;23;19947;-86
2023/03/09 11:22:36;;;;;;;;;;;14.60;99.90;;;;;;6210874;23;19899;-87
2023/03/09 11:25:02;;;;;;;;;;;14.50;99.90;;;;;;6210760;23;20288;-84
2023/03/09 11:27:32;;;;;;;;;;;14.40;99.90;;;;;;6209869;23;20703;-86
2023/03/09 11:30:00;;;;;;;;;;;14.40;99.90;;;;;;6210262;23;20305;-86
2023/03/09 11:32:26;;;;;;;;;;;14.40;99.90;;;;;;6209402;23;19900;-86
2023/03/09 11:34:52;;;;;;;;;;;14.40;99.90;;;;;;6210613;23;20245;-84
2023/03/09 11:37:23;;;;;;;;;;;14.40;99.90;;;;;;6209899;23;19946;-87
2023/03/09 11:39:52;;;;;;;;;;;14.40;99.90;;;;;;6183759;23;19904;-86
2023/03/09 11:42:21;;;;;;;;;;;14.40;99.90;;;;;;6210128;23;19904;-85
2023/03/09 11:44:47;;;;;;;;;;;14.40;99.90;;;;;;6210328;23;19954;-85
2023/03/09 11:47:19;;;;;;;;;;;14.40;99.90;;;;;;6210538;23;19900;-88
2023/03/09 11:49:45;;;;;;;;;;;14.40;99.90;;;;;;6183525;23;19912;-87
2023/03/09 11:52:17;;;;;;;;;;;14.40;99.90;;;;;;6183035;23;20245;-85
2023/03/09 11:54:44;;;;;;;;;;;14.40;99.90;;;;;;6210660;23;19932;-85
2023/03/09 11:57:15;;;;;;;;;;;14.30;99.90;;;;;;6183509;23;19904;-84
2023/03/09 12:00:05;;;;;;;;;;;14.20;99.90;;;;;;6209743;23;19950;-86
2023/03/09 12:02:34;;;;;;;;;;;14.20;99.90;;;;;;6208384;23;19904;-86
2023/03/09 12:05:00;;;;;;;;;;;14.20;99.90;;;;;;6208468;23;19908;-84
2023/03/09 12:07:58;;;;;;;;;;;14.10;99.90;;;;;;6209883;23;19900;-87
2023/03/09 12:10:31;;;;;;;;;;;14.00;99.90;;;;;;6128365;23;19908;-85
2023/03/09 12:13:02;;;;;;;;;;;13.90;99.90;;;;;;6210389;23;19907;-88
2023/03/09 12:15:33;;;;;;;;;;;13.90;99.90;;;;;;6209787;23;19900;-87
2023/03/09 12:18:00;;;;;;;;;;;13.90;99.90;;;;;;6210093;23;19906;-86
2023/03/09 12:20:29;;;;;;;;;;;14.00;99.90;;;;;;6209453;23;19908;-86
2023/03/09 12:22:54;;;;;;;;;;;14.20;99.90;;;;;;6209042;23;20393;-86
2023/03/09 12:25:22;;;;;;;;;;;14.30;99.90;;;;;;6209314;23;19923;-85
2023/03/09 12:27:52;;;;;;;;;;;14.40;99.90;;;;;;6209280;23;19904;-85
2023/03/09 12:30:23;;;;;;;;;;;14.50;99.90;;;;;;6208414;23;19908;-85
2023/03/09 12:32:48;;;;;;;;;;;14.50;99.90;;;;;;6209771;23;19926;-85
2023/03/09 12:35:20;;;;;;;;;;;14.50;99.90;;;;;;6209881;23;19983;-85
2023/03/09 12:37:47;;;;;;;;;;;14.50;99.90;;;;;;6209933;23;19900;-85
2023/03/09 12:40:15;;;;;;;;;;;14.60;99.90;;;;;;6210841;23;19982;-85
2023/03/09 12:42:42;;;;;;;;;;;14.60;99.90;;;;;;6211950;23;20317;-85
2023/03/09 12:45:11;;;;;;;;;;;14.60;99.90;;;;;;6212785;23;19907;-87
2023/03/09 12:47:47;;;;;;;;;;;14.60;99.90;;;;;;6211573;23;19900;-85
2023/03/09 12:50:22;;;;;;;;;;;14.60;99.90;;;;;;6210290;23;19908;-84
2023/03/09 12:52:53;;;;;;;;;;;14.60;99.90;;;;;;6209071;23;19904;-85
2023/03/09 12:55:23;;;;;;;;;;;14.50;99.90;;;;;;6184652;23;19983;-86
2023/03/09 12:57:49;;;;;;;;;;;14.50;99.90;;;;;;6210528;23;19946;-86
2023/03/09 13:00:18;;;;;;;;;;;14.40;99.90;;;;;;6211429;23;19958;-84
2023/03/09 13:02:48;;;;;;;;;;;14.50;99.90;;;;;;6210803;23;19900;-83
2023/03/09 13:05:39;;;;;;;;;;;14.40;99.90;;;;;;6211240;23;19900;-83
2023/03/09 13:08:06;;;;;;;;;;;14.40;99.90;;;;;;6209375;23;19922;-83
2023/03/09 13:10:33;;;;;;;;;;;14.40;99.90;;;;;;6209462;23;19912;-86
2023/03/09 13:13:17;;;;;;;;;;;14.30;99.90;;;;;;6210739;23;19907;-83
2023/03/09 13:15:43;;;;;;;;;;;14.20;99.90;;;;;;6211790;23;19899;-85
2023/03/09 13:18:21;;;;;;;;;;;14.20;99.90;;;;;;6212785;23;20286;-83
2023/03/09 13:20:46;;;;;;;;;;;14.20;99.90;;;;;;6210223;23;19914;-83
2023/03/09 13:23:14;;;;;;;;;;;14.20;99.90;;;;;;6209920;23;19900;-83
2023/03/09 13:26:09;;;;;;;;;;;14.20;99.90;;;;;;6211861;23;19930;-84
2023/03/09 13:28:39;;;;;;;;;;;14.30;99.90;;;;;;6178708;23;19954;-83
2023/03/09 13:31:07;;;;;;;;;;;14.20;99.90;;;;;;6208764;23;19935;-84
2023/03/09 13:33:35;;;;;;;;;;;14.20;99.90;;;;;;6212066;23;19935;-85
2023/03/09 13:36:16;;;;;;;;;;;14.10;99.90;;;;;;6212154;23;19915;-85
2023/03/09 13:38:44;;;;;;;;;;;14.20;99.90;;;;;;6211851;23;19900;-83
2023/03/09 13:41:20;;;;;;;;;;;14.10;99.90;;;;;;6212434;23;19907;-84
2023/03/09 13:43:48;;;;;;;;;;;13.90;99.90;;;;;;6210103;23;19926;-83
2023/03/09 13:46:21;;;;;;;;;;;14.10;99.90;;;;;;6211217;23;19900;-85
2023/03/09 13:48:47;;;;;;;;;;;14.20;99.90;;;;;;6211311;23;19915;-86
2023/03/09 13:51:27;;;;;;;;;;;14.20;99.90;;;;;;6210907;23;19962;-86
2023/03/09 13:53:53;;;;;;;;;;;14.10;99.90;;;;;;6211084;23;19900;-88
2023/03/09 13:56:18;;;;;;;;;;;14.20;99.90;;;;;;6210863;23;19906;-86
2023/03/09 13:58:45;;;;;;;;;;;14.20;99.90;;;;;;6211594;23;19984;-87
2023/03/09 14:01:22;;;;;;;;;;;14.20;99.90;;;;;;6212415;23;19901;-85
2023/03/09 14:03:48;;;;;;;;;;;14.20;99.90;;;;;;6213188;23;19922;-87
2023/03/09 14:06:14;;;;;;;;;;;14.10;99.90;;;;;;6213542;23;19922;-85
2023/03/09 14:08:42;;;;;;;;;;;14.10;99.90;;;;;;6215563;23;20276;-87
2023/03/09 14:11:11;;;;;;;;;;;14.00;99.90;;;;;;6212897;23;20252;-85
2023/03/09 14:13:48;;;;;;;;;;;14.00;99.90;;;;;;6212053;23;19981;-85
2023/03/09 14:16:16;;;;;;;;;;;13.90;99.90;;;;;;6211240;23;19900;-87
2023/03/09 14:18:52;;;;;;;;;;;13.90;99.90;;;;;;6210006;23;19900;-88